Weather observations for the past three days for
Buffalo, Buffalo Municipal Airport
Imperial (Metric)
Date Time (cdt) Wind (mph) Vis. (mi.) Weather Sky Cond. Temperature (ºF) Relative Humidity Wind Chill (°F) Heat Index (°F) Pressure Precipitation (in)
Air Dwpt 6 hour altimeter (in) sea level (mb) 1 hr 3 hr 6 hr
Max. Min.
05 06:42 E 7 1.50 Fog/Mist OVC003 62.6 62.6 100% 30.02 0.0
05 06:22 NE 7 1.00 Fog/Mist OVC003 62.6 62.6 100% 30.01 0.0
05 06:02 NE 7 1.00 Fog/Mist OVC003 62.6 62.6 100% 30.01 0.0
05 05:41 NE 7 G 14 1.50 Fog/Mist OVC003 62.6 62.6 100% 30 0.0
05 05:22 NE 7 1.25 Fog/Mist OVC003 62.6 62.6 100% 30 0.0
05 05:02 Calm 1.00 Fog/Mist OVC003 62.6 62.6 100% 30.01 0.0
05 04:42 NE 8 0.50 Fog/Mist OVC003 62.6 62.6 100% 29.99 0.0
05 04:02 NE 8 1.00 Fog/Mist OVC003 62.6 62.6 100% 29.99 0.0
05 03:42 NE 9 4.00 Fog/Mist OVC003 62.6 62.6 100% 30 0.0
05 03:21 E 6 7.00 Overcast OVC003 62.6 62.6 100% 30 0.0
05 03:01 NE 9 7.00 Overcast OVC003 62.6 62.6 100% 30 0.0
05 02:42 NE 8 9.00 Overcast OVC003 62.6 62.6 100% 30.01 0.0
05 02:21 E 7 9.00 Overcast OVC004 62.6 62.6 100% 30 0.0
05 02:01 NE 8 9.00 Overcast OVC004 62.6 62.6 100% 30 0.0
05 01:41 NE 6 10.00 Overcast OVC004 64.4 62.6 94% 30 0.0
05 01:22 NE 8 10.00 Overcast OVC004 64.4 62.6 94% 30 0.0
05 01:01 NE 10 10.00 Overcast OVC005 64.4 62.6 94% 30 0.0
05 00:42 NE 6 10.00 Mostly Cloudy BKN006 BKN055 62.6 62.6 100% 30 0.0
05 00:02 NE 6 10.00 Mostly Cloudy BKN050 64.4 62.6 94% 30 0.0
04 23:42 NE 7 10.00 Mostly Cloudy BKN050 BKN055 64.4 62.6 94% 29.99 0.0
04 23:22 NE 8 10.00 Mostly Cloudy BKN050 BKN055 64.4 64.4 100% 29.99 0.0
04 22:42 NE 7 G 13 10.00 Overcast FEW044 OVC050 66.2 64.4 94% 29.99 0.0
04 22:22 NE 8 10.00 Mostly Cloudy FEW026 BKN049 68 64.4 88% 29.99 0.0
04 22:02 NE 8 10.00 Mostly Cloudy FEW026 SCT043 BKN050 68 64.4 88% 29.98 0.0
04 21:42 NE 9 10.00 Mostly Cloudy FEW026 FEW044 BKN050 69.8 66.2 88% 29.98 0.0
04 21:22 NE 8 10.00 Mostly Cloudy FEW027 BKN050 69.8 66.2 88% 29.97 0.0
04 21:02 NE 7 10.00 Partly Cloudy FEW045 SCT050 71.6 68 88% 29.96 0.0
04 20:22 NE 6 10.00 Fair CLR 71.6 68 88% 29.95 0.0
04 20:02 NE 6 10.00 Fair CLR 71.6 68 88% 29.94 0.0
04 19:42 NE 6 10.00 Fair CLR 73.4 69.8 89% 29.94 0.0
04 19:21 NE 7 10.00 Fair CLR 77 69.8 79% 79 29.94 0.0
04 19:02 NE 7 10.00 Fair CLR 78.8 69.8 74% 81 29.93 0.0
04 18:01 NE 7 10.00 Fair CLR 82.4 69.8 66% 86 29.92 0.0
04 17:42 N 7 10.00 Fair CLR 84.2 69.8 62% 88 29.92 0.0
04 17:22 NE 7 10.00 Fair CLR 84.2 69.8 62% 88 29.92 0.0
04 17:02 NE 7 10.00 Fair CLR 82.4 69.8 66% 86 29.91 0.0
04 16:42 NE 10 10.00 Fair CLR 82.4 69.8 66% 86 29.91 0.0
04 16:22 N 8 10.00 Fair CLR 82.4 69.8 66% 86 29.91 0.0
04 16:02 NE 10 10.00 Fair CLR 82.4 69.8 66% 86 29.91 0.0
04 15:41 NE 9 10.00 Fair CLR 80.6 71.6 74% 85 29.92 0.0
04 14:35 NE 12 10.00 A Few Clouds FEW021 80.6 71.6 74% 85 29.92 0.0
04 14:15 NE 12 10.00 Mostly Cloudy BKN020 80.6 71.6 74% 85 29.92 0.0
04 13:55 NE 10 G 16 10.00 Overcast OVC019 78.8 71.6 79% 82 29.92 0.0
04 13:35 NE 9 G 15 10.00 Overcast OVC018 78.8 71.6 79% 82 29.92 0.0
04 13:15 NE 8 10.00 Overcast OVC016 77 71.6 83% 78 29.93 0.0
04 12:55 NE 8 10.00 Overcast OVC015 77 71.6 83% 78 29.92 0.0
04 12:35 NE 12 10.00 Overcast OVC014 77 71.6 83% 78 29.92 0.0
04 12:15 NE 12 10.00 Overcast OVC013 77 71.6 83% 78 29.92 0.0
04 11:55 N 8 G 14 10.00 Overcast OVC012 77 71.6 83% 78 29.91 0.0
04 11:35 N 9 10.00 Overcast OVC009 75.2 71.6 89% 75 29.91 0.0
04 11:15 N 7 9.00 Overcast BKN006 OVC009 73.4 71.6 94% 29.91 0.0
04 10:55 N 6 5.00 Fog/Mist OVC005 71.6 69.8 94% 29.91 0.0
04 10:35 NE 7 4.00 Fog/Mist OVC005 71.6 69.8 94% 29.9 0.0
04 10:15 N 8 3.00 Fog/Mist OVC004 69.8 69.8 100% 29.89 0.0
04 09:55 N 6 4.00 Fog/Mist OVC004 69.8 69.8 100% 29.88 0.0
04 09:35 N 3 0.25 Unknown Precip Fog OVC003 69.8 69.8 100% 29.88 0.0
04 09:15 Calm 0.15 Fog OVC003 68 68 100% 29.87 0.0
04 08:55 NE 5 0.15 Fog OVC003 68 68 100% 29.87 0.0
04 08:35 NE 6 0.15 Fog OVC003 68 68 100% 29.86 0.0
04 08:15 NE 6 0.15 Fog OVC003 68 68 100% 29.86 0.0
04 07:55 NE 6 0.50 Fog OVC003 68 68 100% 29.86 0.0
04 07:35 NE 6 0.15 Fog OVC003 68 68 100% 29.85 0.0
04 07:15 N 8 0.15 Fog OVC002 68 68 100% 29.85 0.0
04 06:55 N 5 0.15 Fog OVC002 69.8 69.8 100% 29.84 0.0
04 06:35 N 5 1.75 Fog/Mist OVC003 69.8 69.8 100% 29.83 0.0
04 05:55 NE 8 4.00 Fog/Mist OVC003 69.8 69.8 100% 29.83 0.0
04 05:35 E 6 9.00 Mostly Cloudy BKN004 BKN027 BKN035 69.8 69.8 100% 29.82 0.0
04 05:15 Calm 9.00 Partly Cloudy FEW005 SCT027 SCT033 69.8 69.8 100% 29.82 0.0
04 04:55 Vrbl 3 9.00 A Few Clouds FEW025 69.8 69.8 100% 29.82 0.0
04 04:35 Calm 9.00 Partly Cloudy SCT023 SCT028 69.8 69.8 100% 29.82 0.0
04 04:15 NE 5 10.00 Partly Cloudy FEW009 SCT021 SCT029 69.8 69.8 100% 29.82 0.0
04 03:55 NE 5 G 15 3.00 Fog/Mist FEW006 SCT020 BKN030 69.8 69.8 100% 29.82 0.0
04 03:35 Calm 0.50 Fog BKN020 BKN025 OVC055 68 68 100% 29.8 0.0
04 03:15 Calm 1.25 Fog/Mist SCT021 SCT029 SCT055 68 68 100% 29.8 0.0
04 02:55 Calm 5.00 Fog/Mist CLR 69.8 69.8 100% 29.8 0.0
04 02:35 Calm 10.00 A Few Clouds FEW046 FEW055 69.8 69.8 100% 29.8 0.0
04 02:15 Calm 10.00 Partly Cloudy FEW037 FEW045 SCT050 69.8 69.8 100% 29.8 0.0
04 01:55 Calm 10.00 Partly Cloudy FEW044 FEW050 SCT060 69.8 69.8 100% 29.8 0.0
04 01:35 Calm 10.00 Partly Cloudy FEW039 SCT055 71.6 69.8 94% 29.8 0.0
04 01:15 E 3 10.00 Partly Cloudy FEW040 FEW048 SCT055 71.6 71.6 100% 29.8 0.0
04 00:55 E 3 10.00 Partly Cloudy FEW034 SCT043 SCT050 73.4 71.6 94% 29.8 0.0
04 00:35 Calm 10.00 Mostly Cloudy FEW035 BKN043 BKN050 75.2 71.6 89% 75 29.79 0.0
04 00:15 Calm 10.00 Mostly Cloudy FEW035 BKN044 75.2 71.6 89% 75 29.79 0.0
03 23:55 S 3 10.00 Overcast BKN034 OVC043 77 73.4 89% 78 29.79 0.0
03 23:35 Vrbl 5 10.00 Overcast BKN033 BKN040 OVC047 77 73.4 89% 78 29.79 0.0
03 23:15 S 7 10.00 Overcast BKN034 OVC039 77 73.4 89% 78 29.79 0.0
03 22:55 S 7 10.00 Overcast BKN037 OVC048 77 71.6 83% 78 29.79 0.0
03 22:35 S 6 10.00 Overcast FEW036 OVC046 75.2 71.6 89% 75 29.79 0.0
03 22:15 SE 7 10.00 Overcast OVC042 77 71.6 83% 78 29.79 0.0
03 21:55 SE 8 10.00 Overcast BKN040 BKN046 OVC050 77 71.6 83% 78 29.79 0.0
03 21:35 SE 7 10.00 Mostly Cloudy SCT035 BKN042 BKN050 77 71.6 83% 78 29.79 0.0
03 21:15 SE 7 10.00 Overcast BKN036 OVC045 77 71.6 83% 78 29.78 0.0
03 20:55 SE 6 10.00 Overcast BKN038 OVC046 77 71.6 83% 78 29.78 0.0
03 20:35 SE 6 10.00 Mostly Cloudy SCT039 BKN048 77 71.6 83% 78 29.78 0.0
03 20:15 SE 7 10.00 Fair CLR 77 71.6 83% 78 29.77 0.0
03 19:55 SE 5 10.00 Fair CLR 78.8 71.6 79% 82 29.77 0.0
03 19:35 S 6 10.00 A Few Clouds FEW047 82.4 71.6 70% 87 29.77 0.0
03 19:15 S 6 10.00 Mostly Cloudy BKN046 82.4 71.6 70% 87 29.77 0.0
03 18:35 S 7 G 13 10.00 Overcast OVC045 84.2 69.8 62% 88 29.77 0.0
03 18:15 S 9 10.00 Overcast OVC045 84.2 71.6 66% 90 29.77 0.0
03 17:55 Vrbl 7 G 15 10.00 Mostly Cloudy BKN043 86 71.6 62% 92 29.75 0.0
03 17:35 SE 8 10.00 Mostly Cloudy BKN045 84.2 71.6 66% 90 29.74 0.0
03 17:15 SE 10 10.00 Mostly Cloudy BKN045 84.2 71.6 66% 90 29.75 0.0
03 16:55 SE 8 G 14 10.00 Overcast OVC043 84.2 71.6 66% 90 29.76 0.0
03 16:35 S 9 G 17 10.00 Overcast OVC043 84.2 69.8 62% 88 29.76 0.0
03 16:15 S 9 G 21 10.00 Mostly Cloudy BKN042 BKN048 86 71.6 62% 92 29.76 0.0
03 15:55 S 14 G 22 10.00 Fair CLR 86 69.8 59% 91 29.76 0.0
03 15:35 S 10 G 22 10.00 Fair CLR 86 69.8 59% 91 29.76 0.0
03 15:15 S 14 G 21 10.00 A Few Clouds FEW041 84.2 71.6 66% 90 29.76 0.0
03 14:55 S 8 G 15 10.00 Fair CLR 86 71.6 62% 92 29.77 0.0
03 14:35 SE 13 G 18 10.00 Fair CLR 86 69.8 59% 91 29.78 0.0
03 14:15 S 12 G 18 10.00 Fair CLR 86 69.8 59% 91 29.78 0.0
03 13:35 S 8 G 17 10.00 Fair CLR 82.4 69.8 66% 86 29.8 0.0
03 13:15 S 16 G 23 10.00 Thunderstorm CLR 84.2 69.8 62% 88 29.8 0.0
03 12:55 SE 12 10.00 A Few Clouds FEW050 FEW065 FEW080 82.4 71.6 70% 87 29.8 0.0
03 12:35 S 8 6.00 Light Rain Haze FEW050 FEW065 SCT120 78.8 69.8 74% 81 29.81 0.0
03 12:15 S 12 10.00 Fair CLR 82.4 68 62% 85 29.82 0.0
03 11:55 SE 9 G 16 10.00 Fair CLR 82.4 68 62% 85 29.82 0.0
03 11:35 SE 9 10.00 Fair CLR 84.2 69.8 62% 88 29.82 0.0
03 11:15 SE 7 G 13 10.00 Fair CLR 84.2 68 58% 87 29.82 0.0
03 10:55 SE 9 10.00 Fair CLR 82.4 69.8 66% 86 29.82 0.0
03 10:35 Vrbl 7 10.00 Fair CLR 82.4 69.8 66% 86 29.83 0.0
03 10:15 SE 9 10.00 Fair CLR 80.6 69.8 70% 84 29.82 0.0
03 09:55 SE 8 10.00 Fair CLR 78.8 69.8 74% 81 29.82 0.0
03 09:35 E 6 10.00 Fair CLR 78.8 71.6 79% 82 29.83 0.0
03 09:15 E 6 10.00 Fair CLR 75.2 71.6 89% 75 29.83 0.0
03 08:55 E 7 10.00 Fair CLR 73.4 69.8 89% 29.84 0.0
03 08:35 E 5 10.00 Fair CLR 71.6 69.8 94% 29.85 0.0
03 08:15 E 6 10.00 Fair CLR 71.6 68 88% 29.84 0.0
03 07:55 NE 7 10.00 Fair CLR 69.8 68 94% 29.83 0.0
03 07:35 NE 6 10.00 Fair CLR 68 68 100% 29.83 0.0
03 07:15 NE 6 10.00 Fair CLR 68 68 100% 29.83 0.0
03 06:55 NE 6 10.00 Partly Cloudy FEW029 FEW036 SCT050 68 66.2 94% 29.84 0.0
03 06:35 E 3 10.00 Mostly Cloudy SCT043 BKN050 68 66.2 94% 29.83 0.0
03 06:15 E 5 10.00 Overcast OVC041 68 66.2 94% 29.83 0.0
03 05:55 NE 5 10.00 Overcast OVC040 68 66.2 94% 29.84 0.0
03 05:35 Calm 10.00 Overcast BKN035 OVC070 68 66.2 94% 29.84 0.0
03 05:15 E 3 10.00 Overcast BKN031 BKN060 OVC070 68 66.2 94% 29.83 0.0
03 04:55 Calm 10.00 Overcast OVC031 66.2 66.2 100% 29.83 0.0
03 04:35 E 3 10.00 Overcast SCT029 BKN033 OVC055 66.2 66.2 100% 29.82 0.0
03 04:15 NE 3 10.00 Overcast OVC032 66.2 64.4 94% 29.83 0.0
03 03:55 Calm 10.00 Overcast BKN034 OVC039 66.2 66.2 100% 29.83 0.0
03 03:35 Calm 10.00 Mostly Cloudy BKN039 66.2 66.2 100% 29.83 0.0
03 03:15 E 6 10.00 Mostly Cloudy BKN039 66.2 64.4 94% 29.83 0.0
03 02:55 E 5 10.00 Overcast OVC040 66.2 64.4 94% 29.84 0.0
03 02:42 Calm 10.00 Overcast OVC041 33.8 33.8 100% 29.84 0.0
03 02:25 Calm 10.00 Overcast OVC040 66.2 64.4 94% 29.84 0.0
03 02:15 E 3 10.00 Mostly Cloudy BKN040 66.2 64.4 94% 29.84 0.0
03 01:55 Calm 10.00 Mostly Cloudy BKN039 68 64.4 88% 29.85 0.0
03 01:42 NE 3 10.00 Mostly Cloudy BKN040 68 64.4 88% 29.85 0.0
03 01:15 NE 6 10.00 Overcast OVC040 69.8 64.4 83% 29.86 0.0
03 00:55 NE 7 10.00 Overcast OVC041 69.8 64.4 83% 29.86 0.0
03 00:35 NE 6 10.00 Overcast OVC042 69.8 64.4 83% 29.85 0.0
03 00:15 NE 6 10.00 Overcast OVC043 69.8 64.4 83% 29.86 0.0
02 23:55 NE 7 10.00 Overcast OVC046 69.8 64.4 83% 29.86 0.0
02 23:35 NE 6 10.00 Overcast OVC047 71.6 64.4 78% 29.86 0.0
02 23:15 NE 3 10.00 Overcast OVC044 71.6 64.4 78% 29.87 0.0
02 22:55 NE 5 10.00 Overcast OVC045 71.6 64.4 78% 29.87 0.0
02 22:35 NE 6 10.00 Overcast OVC045 71.6 64.4 78% 29.87 0.0
02 22:15 NE 7 10.00 Overcast BKN043 OVC049 71.6 64.4 78% 29.87 0.0
02 21:55 NE 6 10.00 Overcast OVC042 71.6 64.4 78% 29.87 0.0
02 21:35 E 7 10.00 Overcast BKN044 OVC050 71.6 64.4 78% 29.87 0.0
02 21:15 NE 5 10.00 Overcast OVC047 71.6 66.2 83% 29.87 0.0
02 20:55 NE 5 10.00 Overcast OVC049 71.6 66.2 83% 29.87 0.0
02 20:35 NE 3 10.00 Mostly Cloudy SCT048 BKN055 BKN065 71.6 66.2 83% 29.86 0.0
02 20:15 Calm 10.00 A Few Clouds FEW044 71.6 68 88% 29.85 0.0
02 19:55 E 3 10.00 Fair CLR 75.2 68 78% 76 29.85 0.0
02 19:35 Calm 10.00 Fair CLR 78.8 68 70% 81 29.85 0.0
02 19:15 Calm 10.00 Fair CLR 80.6 68 66% 83 29.85 0.0
02 18:55 E 5 10.00 Fair CLR 82.4 68 62% 85 29.84 0.0
02 18:35 E 5 10.00 Fair CLR 84.2 66.2 55% 87 29.85 0.0
02 18:15 E 7 10.00 Fair CLR 84.2 64.4 51% 86 29.84 0.0
02 17:55 SE 6 10.00 Fair CLR 84.2 66.2 55% 87 29.85 0.0
02 17:35 Calm 10.00 Fair CLR 86 64.4 49% 87 29.85 0.0
02 17:15 E 6 10.00 Fair CLR 86 64.4 49% 87 29.85 0.0
02 16:55 SE 5 10.00 Fair CLR 86 64.4 49% 87 29.85 0.0
02 16:35 SE 6 10.00 Fair CLR 84.2 64.4 51% 86 29.86 0.0
02 16:15 Vrbl 3 10.00 Fair CLR 84.2 64.4 51% 86 29.86 0.0
02 15:55 E 7 10.00 Fair CLR 84.2 64.4 51% 86 29.86 0.0
02 15:35 E 5 10.00 Fair CLR 84.2 62.6 48% 85 29.87 0.0
02 15:15 Vrbl 5 10.00 Fair CLR 84.2 62.6 48% 85 29.87 0.0
02 14:55 Vrbl 5 10.00 Fair CLR 82.4 64.4 55% 84 29.87 0.0
02 14:35 Vrbl 6 G 12 10.00 Fair CLR 82.4 64.4 55% 84 29.88 0.0
02 14:15 Vrbl 5 10.00 Fair CLR 82.4 66.2 58% 85 29.89 0.0
02 13:55 E 3 10.00 Fair CLR 82.4 64.4 55% 84 29.89 0.0
02 13:35 E 6 10.00 A Few Clouds FEW120 82.4 64.4 55% 84 29.9 0.0
02 13:15 E 8 10.00 Fair CLR 80.6 64.4 58% 82 29.9 0.0
02 12:55 Vrbl 6 10.00 Fair CLR 80.6 66.2 62% 83 29.91 0.0
02 12:35 Vrbl 5 10.00 Fair CLR 78.8 66.2 65% 81 29.91 0.0
02 12:15 Calm 10.00 Fair CLR 78.8 64.4 61% 81 29.92 0.0
02 11:55 SE 6 10.00 Fair CLR 78.8 66.2 65% 81 29.93 0.0
02 11:35 Vrbl 3 10.00 Fair CLR 77 66.2 69% 79 29.93 0.0
02 11:15 Calm 10.00 Fair CLR 75.2 64.4 69% 77 29.92 0.0
02 10:55 Calm 10.00 Fair CLR 75.2 64.4 69% 77 29.92 0.0
02 10:35 Calm 10.00 Fair CLR 73.4 66.2 78% 29.93 0.0
02 10:15 Calm 10.00 Fair CLR 73.4 64.4 74% 29.91 0.0
02 09:55 Calm 10.00 Fair CLR 71.6 64.4 78% 29.91 0.0
02 09:35 Calm 10.00 Fair CLR 71.6 64.4 78% 29.92 0.0
02 09:15 E 5 10.00 Fair CLR 69.8 64.4 83% 29.92 0.0
02 08:55 SE 6 10.00 Fair CLR 69.8 64.4 83% 29.92 0.0
02 08:35 E 3 10.00 Fair CLR 68 64.4 88% 29.93 0.0
Date Time (cdt) Wind (mph) Vis. (mi.) Weather Sky Cond. Air Dwpt Max. Min. Relative Humidity Wind Chill (°F) Heat Index (°F) altimeter (in) sea level (mb) 1 hr 3 hr 6 hr
6 hour
Temperature (ºF) Pressure Precipitation (in)